BAW24T EGLL-ENZV
Flight info
| Callsign | BAW24T |
|---|---|
| Flight time | N/A |
| Altitude | 37000 |
| Route | BPK Q295 MATCH P144 DIGSU P5 BUZDE DCT LAMRO DCT NIVUN DCT UNBUD |
| Aircraft | A320/M-SDE3FGHIRWY/LB1 |
Departure
| Time | 2026-05-03 21:23 |
|---|---|
| Airport | London Heathrow Airport (EGLL) |
Arrival
| Time | N/A |
|---|---|
| Airport | Stavanger Airport, Sola (ENZV) |
| Time | Latitude | Longitude | Altitude | Speed | Heading |
|---|---|---|---|---|---|
| 2026-05-03 20:43 | 51.46826 | -0.45181 | 86 ft | 0 kts | 359° |
| 2026-05-03 21:14 | 51.46816 | -0.45181 | 91 ft | 4 kts | 359° |
| 2026-05-03 21:14 | 51.46789 | -0.45181 | 88 ft | 4 kts | 359° |
| 2026-05-03 21:15 | 51.46768 | -0.45181 | 89 ft | 4 kts | 19° |
| 2026-05-03 21:15 | 51.46751 | -0.45204 | 88 ft | 4 kts | 82° |
| 2026-05-03 21:15 | 51.46750 | -0.45241 | 87 ft | 2 kts | 89° |
| 2026-05-03 21:15 | 51.46750 | -0.45243 | 87 ft | 0 kts | 89° |
| 2026-05-03 21:17 | 51.46750 | -0.45238 | 87 ft | 3 kts | 89° |
| 2026-05-03 21:18 | 51.46751 | -0.45181 | 88 ft | 6 kts | 89° |
| 2026-05-03 21:18 | 51.46751 | -0.45098 | 86 ft | 9 kts | 89° |
| 2026-05-03 21:18 | 51.46751 | -0.44991 | 86 ft | 11 kts | 90° |
| 2026-05-03 21:18 | 51.46751 | -0.44859 | 86 ft | 13 kts | 90° |
| 2026-05-03 21:19 | 51.46752 | -0.44705 | 86 ft | 15 kts | 89° |
| 2026-05-03 21:19 | 51.46753 | -0.44524 | 86 ft | 17 kts | 89° |
| 2026-05-03 21:19 | 51.46753 | -0.44317 | 86 ft | 20 kts | 89° |
| 2026-05-03 21:19 | 51.46759 | -0.44084 | 88 ft | 22 kts | 77° |
| 2026-05-03 21:20 | 51.46772 | -0.43828 | 87 ft | 24 kts | 90° |
| 2026-05-03 21:20 | 51.46772 | -0.43568 | 87 ft | 21 kts | 89° |
| 2026-05-03 21:20 | 51.46705 | -0.43438 | 87 ft | 16 kts | 167° |
| 2026-05-03 21:20 | 51.46608 | -0.43435 | 89 ft | 6 kts | 180° |
| 2026-05-03 21:21 | 51.46605 | -0.43435 | 89 ft | 0 kts | 180° |
| 2026-05-03 21:21 | 51.46600 | -0.43435 | 89 ft | 5 kts | 180° |
| 2026-05-03 21:21 | 51.46535 | -0.43434 | 87 ft | 11 kts | 180° |
| 2026-05-03 21:21 | 51.46495 | -0.43520 | 88 ft | 7 kts | 269° |
| 2026-05-03 21:22 | 51.46494 | -0.43684 | 86 ft | 39 kts | 269° |
| 2026-05-03 21:22 | 51.46491 | -0.44516 | 88 ft | 106 kts | 270° |
| 2026-05-03 21:22 | 51.46487 | -0.45983 | 90 ft | 156 kts | 270° |
| 2026-05-03 21:22 | 51.46505 | -0.47778 | 639 ft | 158 kts | 272° |
| 2026-05-03 21:23 | 51.46520 | -0.49549 | 1318 ft | 161 kts | 270° |
| 2026-05-03 21:23 | 51.46692 | -0.51418 | 1749 ft | 181 kts | 289° |
| 2026-05-03 21:23 | 51.47283 | -0.53337 | 2016 ft | 204 kts | 298° |
| 2026-05-03 21:23 | 51.47996 | -0.55469 | 2313 ft | 229 kts | 297° |
| 2026-05-03 21:24 | 51.48772 | -0.57859 | 2767 ft | 252 kts | 297° |
| 2026-05-03 21:24 | 51.49587 | -0.60413 | 3545 ft | 261 kts | 297° |
| 2026-05-03 21:24 | 51.50445 | -0.63015 | 4420 ft | 266 kts | 303° |
| 2026-05-03 21:24 | 51.51832 | -0.64976 | 5264 ft | 273 kts | 336° |
| 2026-05-03 21:25 | 51.53708 | -0.65461 | 6134 ft | 278 kts | 1° |
| 2026-05-03 21:25 | 51.55594 | -0.64776 | 6945 ft | 283 kts | 28° |
| 2026-05-03 21:25 | 51.57155 | -0.62839 | 7763 ft | 287 kts | 48° |
| 2026-05-03 21:25 | 51.58353 | -0.60263 | 8611 ft | 290 kts | 56° |
| 2026-05-03 21:26 | 51.59538 | -0.57609 | 9439 ft | 294 kts | 54° |
| 2026-05-03 21:26 | 51.60781 | -0.54952 | 10151 ft | 304 kts | 53° |
| 2026-05-03 21:26 | 51.62096 | -0.52124 | 10393 ft | 327 kts | 57° |
| 2026-05-03 21:26 | 51.63225 | -0.48860 | 10859 ft | 338 kts | 64° |
| 2026-05-03 21:27 | 51.64295 | -0.45457 | 11517 ft | 343 kts | 64° |
| 2026-05-03 21:27 | 51.65008 | -0.43172 | 11972 ft | 346 kts | 65° |
| 2026-05-03 21:27 | 51.66089 | -0.39685 | 12684 ft | 351 kts | 65° |
| 2026-05-03 21:27 | 51.67182 | -0.36138 | 13373 ft | 355 kts | 65° |
| 2026-05-03 21:28 | 51.68285 | -0.32547 | 14025 ft | 360 kts | 65° |
| 2026-05-03 21:28 | 51.69402 | -0.28910 | 14645 ft | 363 kts | 65° |
| 2026-05-03 21:28 | 51.70528 | -0.25241 | 15276 ft | 367 kts | 65° |
| 2026-05-03 21:28 | 51.71661 | -0.21533 | 15927 ft | 370 kts | 65° |
| 2026-05-03 21:29 | 51.72804 | -0.17792 | 16571 ft | 374 kts | 65° |
| 2026-05-03 21:29 | 51.73956 | -0.14014 | 17208 ft | 377 kts | 66° |
| 2026-05-03 21:29 | 51.74897 | -0.10053 | 17813 ft | 379 kts | 76° |
| 2026-05-03 21:29 | 51.75387 | -0.05877 | 18391 ft | 380 kts | 85° |
| 2026-05-03 21:30 | 51.75734 | -0.01629 | 18939 ft | 384 kts | 85° |
| 2026-05-03 21:30 | 51.76086 | 0.02658 | 19470 ft | 387 kts | 84° |
| 2026-05-03 21:30 | 51.76443 | 0.06994 | 20026 ft | 391 kts | 85° |
| 2026-05-03 21:30 | 51.76802 | 0.11367 | 20579 ft | 395 kts | 85° |
| 2026-05-03 21:31 | 51.77165 | 0.15773 | 21120 ft | 398 kts | 84° |
| 2026-05-03 21:31 | 51.77769 | 0.20168 | 21640 ft | 404 kts | 75° |
| 2026-05-03 21:31 | 51.78831 | 0.24407 | 22155 ft | 410 kts | 64° |
| 2026-05-03 21:31 | 51.80346 | 0.28341 | 22669 ft | 416 kts | 53° |
| 2026-05-03 21:32 | 51.82285 | 0.31831 | 23201 ft | 420 kts | 44° |
| 2026-05-03 21:32 | 51.84369 | 0.35088 | 23706 ft | 424 kts | 44° |
| 2026-05-03 21:32 | 51.86497 | 0.38418 | 24186 ft | 427 kts | 44° |
| 2026-05-03 21:32 | 51.88642 | 0.41777 | 24687 ft | 431 kts | 45° |
| 2026-05-03 21:33 | 51.90807 | 0.45172 | 25169 ft | 434 kts | 45° |
| 2026-05-03 21:33 | 51.92981 | 0.48594 | 25623 ft | 438 kts | 45° |
| 2026-05-03 21:33 | 51.95169 | 0.52045 | 26018 ft | 441 kts | 45° |
| 2026-05-03 21:33 | 51.97378 | 0.55532 | 26420 ft | 445 kts | 45° |
| 2026-05-03 21:34 | 51.99617 | 0.59022 | 26816 ft | 448 kts | 42° |
| 2026-05-03 21:34 | 52.02102 | 0.62109 | 27198 ft | 452 kts | 33° |
| 2026-05-03 21:34 | 52.04872 | 0.64551 | 27556 ft | 455 kts | 23° |
| 2026-05-03 21:34 | 52.07854 | 0.66294 | 27902 ft | 457 kts | 16° |
| 2026-05-03 21:35 | 52.10899 | 0.67836 | 28268 ft | 460 kts | 17° |
| 2026-05-03 21:35 | 52.13968 | 0.69405 | 28622 ft | 463 kts | 17° |
| 2026-05-03 21:35 | 52.17050 | 0.70993 | 28977 ft | 466 kts | 17° |
| 2026-05-03 21:35 | 52.20150 | 0.72601 | 29329 ft | 469 kts | 17° |
| 2026-05-03 21:36 | 52.23274 | 0.74222 | 29669 ft | 472 kts | 17° |
| 2026-05-03 21:36 | 52.26413 | 0.75851 | 30020 ft | 475 kts | 17° |
| 2026-05-03 21:36 | 52.29574 | 0.77491 | 30320 ft | 478 kts | 17° |
| 2026-05-03 21:36 | 52.32751 | 0.79139 | 30615 ft | 480 kts | 17° |
| 2026-05-03 21:37 | 52.35946 | 0.80799 | 30917 ft | 483 kts | 17° |
| 2026-05-03 21:37 | 52.39148 | 0.82465 | 31276 ft | 483 kts | 17° |
| 2026-05-03 21:37 | 52.42346 | 0.84134 | 31727 ft | 482 kts | 17° |
| 2026-05-03 21:37 | 52.45536 | 0.85804 | 32181 ft | 481 kts | 17° |
| 2026-05-03 21:38 | 52.48720 | 0.87471 | 32641 ft | 479 kts | 17° |
| 2026-05-03 21:38 | 52.51890 | 0.89132 | 33097 ft | 478 kts | 17° |
| 2026-05-03 21:38 | 52.55011 | 0.90772 | 33562 ft | 477 kts | 17° |
| 2026-05-03 21:38 | 52.58169 | 0.92435 | 34016 ft | 476 kts | 17° |
| 2026-05-03 21:39 | 52.61315 | 0.94093 | 34371 ft | 475 kts | 17° |
| 2026-05-03 21:39 | 52.64457 | 0.95749 | 34721 ft | 474 kts | 17° |
| 2026-05-03 21:39 | 52.67592 | 0.97404 | 35060 ft | 473 kts | 17° |
| 2026-05-03 21:39 | 52.70725 | 0.99062 | 35394 ft | 472 kts | 17° |
| 2026-05-03 21:40 | 52.73848 | 1.00716 | 35703 ft | 472 kts | 17° |
| 2026-05-03 21:40 | 52.76972 | 1.02370 | 36026 ft | 471 kts | 17° |
| 2026-05-03 21:40 | 52.80088 | 1.04023 | 36350 ft | 470 kts | 17° |
| 2026-05-03 21:40 | 52.83200 | 1.05679 | 36665 ft | 469 kts | 17° |
| 2026-05-03 21:41 | 52.86302 | 1.07338 | 36882 ft | 469 kts | 17° |
| 2026-05-03 21:41 | 52.89407 | 1.09002 | 36933 ft | 469 kts | 17° |
| 2026-05-03 21:41 | 52.95612 | 1.12318 | 36932 ft | 468 kts | 17° |
| 2026-05-03 21:42 | 53.01814 | 1.15642 | 36935 ft | 468 kts | 16° |
| 2026-05-03 21:42 | 53.07998 | 1.18972 | 36933 ft | 467 kts | 16° |
| 2026-05-03 21:43 | 53.14173 | 1.22303 | 36931 ft | 467 kts | 16° |
| 2026-05-03 21:43 | 53.20347 | 1.25641 | 36937 ft | 467 kts | 16° |